LIMJ/GOA METAR and TAF weather

Enter ICAO airport designator
Station Type Date Time Source
LIMJ METAR 2022/01/18 06:20 UTC NOAA

LIMJ 180620Z VRB02KT CAVOK 08/06 Q1028


Station Type Date Time Source
LIMJ Decoded METAR 2022/01/18 06:20 UTC NOAA

Genova / Sestri, Italy (LIMJ) 44-25N 008-51E 3M
Jan 18, 2022 - 01:20 AM EST / 2022.01.18 0620 UTC
Wind: Variable at 2 MPH (2 KT):0
Visibility: greater than 7 mile(s):0
Temperature: 46 F (8 C)
Dew Point: 42 F (6 C)
Relative Humidity: 87%
Pressure (altimeter): 30.36 in. Hg (1028 hPa)
ob: LIMJ 180620Z VRB02KT CAVOK 08/06 Q1028
cycle: 6

Station Type Date Time Source
LIMJ TAF 2022/01/18 06:22 UTC NOAA

TAF LIMJ 180500Z 1806/1906 03008KT CAVOK

Example: see airport list